Terminal Aerodrome Forecast
Issued by NWS Sioux Falls, SD

Home | Current Version | Previous Version | Graphics & Text | Print | Product List | Glossary Off
Versions: 1 2 3 4 5 6 7 8 9 10 11 12

000
FTUS43 KFSD 251722
TAFHON
TAF
KHON 251722Z 2518/2618 19020G25KT P6SM BKN150
     FM252300 20011KT P6SM BKN120
     FM260600 24005KT P6SM FEW200
     FM260900 31007KT P6SM SCT200
     FM261500 31011KT P6SM FEW250=

USA.gov is the U.S. government's official web portal to all federal, state and local government web resources and services.